Time;durP1;ratioP1;P1;durP2;ratioP2;P2;SDS_P1;SDS_P2;PMS_P1;PMS_P2;Temp;Humidity;BMP_temperature;BMP_pressure;BME280_temperature;BME280_humidity;BME280_pressure;Samples;Min_cycle;Max_cycle;Signal;HPM_P1;HPM_P2
2022/03/23 00:01:03;;;;;;;79.10;48.97;;;;;;;11.28;52.85;103136.13;5207200;28;21153;-56
2022/03/23 00:03:37;;;;;;;75.63;49.50;;;;;;;10.94;52.81;103090.66;5204670;28;20684;-54
2022/03/23 00:06:10;;;;;;;75.35;50.22;;;;;;;11.22;52.90;103145.28;5204672;28;20449;-55
2022/03/23 00:08:42;;;;;;;75.45;51.10;;;;;;;11.17;53.00;103141.25;5211199;28;20450;-56
2022/03/23 00:11:15;;;;;;;77.93;51.50;;;;;;;11.13;53.10;103145.03;5227321;28;20410;-56
2022/03/23 00:13:47;;;;;;;81.22;51.80;;;;;;;11.07;53.14;103141.81;5225852;28;20415;-56
2022/03/23 00:16:20;;;;;;;74.38;51.60;;;;;;;11.01;53.17;103142.22;5225904;28;20814;-56
2022/03/23 00:18:54;;;;;;;71.35;49.42;;;;;;;11.00;53.16;103140.53;5228107;28;20411;-55
2022/03/23 00:21:26;;;;;;;74.88;51.97;;;;;;;10.97;53.40;103139.88;5230169;28;20606;-47
2022/03/23 00:23:58;;;;;;;86.90;53.78;;;;;;;10.93;53.31;103144.50;5220838;28;20450;-56
2022/03/23 00:26:31;;;;;;;78.53;52.80;;;;;;;10.90;53.38;103147.34;5226530;28;20451;-56
2022/03/23 00:29:04;;;;;;;81.90;52.53;;;;;;;10.86;53.52;103148.44;5228426;28;20526;-55
2022/03/23 00:31:37;;;;;;;80.55;53.08;;;;;;;10.81;53.60;103142.63;5226770;28;20408;-53
2022/03/23 00:34:11;;;;;;;76.35;52.95;;;;;;;10.79;53.68;103142.69;5225790;28;20427;-57
2022/03/23 00:36:43;;;;;;;82.47;51.63;;;;;;;10.75;53.67;103140.34;5217778;28;20809;-56
2022/03/23 00:39:15;;;;;;;77.43;52.83;;;;;;;10.74;53.73;103143.91;5226299;28;20512;-56
2022/03/23 00:41:49;;;;;;;75.00;51.97;;;;;;;10.70;53.80;103142.41;5225531;28;20407;-55
2022/03/23 00:44:21;;;;;;;77.97;51.45;;;;;;;10.65;53.77;103139.19;5226141;28;20775;-56
2022/03/23 00:46:54;;;;;;;80.30;54.42;;;;;;;10.63;53.90;103141.09;5225725;28;20480;-56
2022/03/23 00:49:28;;;;;;;79.15;53.72;;;;;;;10.61;53.83;103143.81;5222373;28;20453;-56
2022/03/23 00:52:04;;;;;;;78.60;51.67;;;;;;;10.57;53.96;103142.31;5223210;28;20492;-56
2022/03/23 00:54:37;;;;;;;80.72;55.05;;;;;;;10.52;54.09;103134.66;5223525;28;20432;-55
2022/03/23 00:57:10;;;;;;;87.22;54.83;;;;;;;10.48;54.20;103133.16;5225558;28;20825;-56
2022/03/23 00:59:42;;;;;;;78.55;52.20;;;;;;;10.50;54.27;103130.41;5221939;28;20510;-55
2022/03/23 01:02:15;;;;;;;77.43;52.20;;;;;;;10.46;54.06;103129.75;5228050;28;20416;-55
2022/03/23 01:04:48;;;;;;;77.75;51.95;;;;;;;10.42;54.43;103132.69;5230233;28;20502;-57
2022/03/23 01:07:21;;;;;;;79.65;53.00;;;;;;;10.39;54.54;103139.00;5228457;28;20589;-57
2022/03/23 01:09:53;;;;;;;78.20;53.63;;;;;;;10.32;54.47;103127.09;5231371;28;20419;-54
2022/03/23 01:12:26;;;;;;;78.05;53.78;;;;;;;10.23;54.60;103122.34;5228540;28;20494;-55
2022/03/23 01:14:58;;;;;;;78.45;53.03;;;;;;;10.15;54.72;103120.13;5223843;28;20396;-56
2022/03/23 01:17:32;;;;;;;81.45;55.22;;;;;;;10.25;54.59;103136.28;5229434;28;20738;-56
2022/03/23 01:20:09;;;;;;;91.20;54.70;;;;;;;10.22;54.81;103141.75;5231394;28;20494;-56
2022/03/23 01:22:43;;;;;;;85.72;55.15;;;;;;;10.20;54.95;103127.81;5230891;28;20412;-57
2022/03/23 01:25:15;;;;;;;87.28;56.80;;;;;;;10.18;54.87;103137.59;5230929;28;20569;-57
2022/03/23 01:27:48;;;;;;;85.43;54.85;;;;;;;10.15;55.07;103134.19;5230337;28;20824;-56
2022/03/23 01:30:21;;;;;;;82.97;56.83;;;;;;;10.11;54.72;103135.31;5228893;28;20907;-56
2022/03/23 01:32:54;;;;;;;80.22;54.25;;;;;;;10.11;54.96;103127.41;5227239;28;20490;-56
2022/03/23 01:35:28;;;;;;;81.38;53.97;;;;;;;9.83;55.26;103085.09;5231385;28;20509;-56
2022/03/23 01:38:00;;;;;;;86.13;53.97;;;;;;;10.04;55.13;103130.50;5227859;28;20427;-55
2022/03/23 01:40:33;;;;;;;85.13;57.30;;;;;;;10.03;55.34;103128.78;5230997;28;20411;-56
2022/03/23 01:43:06;;;;;;;80.13;55.22;;;;;;;10.01;55.35;103130.69;5227452;28;20408;-57
2022/03/23 01:45:38;;;;;;;79.60;53.80;;;;;;;9.86;55.41;103109.50;5232640;28;20404;-56
2022/03/23 01:48:10;;;;;;;77.68;55.03;;;;;;;9.89;55.66;103119.03;5224872;28;20452;-56
2022/03/23 01:50:44;;;;;;;81.18;55.80;;;;;;;9.90;55.47;103123.38;5227898;28;20416;-56
2022/03/23 01:53:17;;;;;;;82.88;55.03;;;;;;;9.87;55.59;103120.91;5228155;28;20961;-57
2022/03/23 01:55:50;;;;;;;81.22;55.08;;;;;;;9.83;55.68;103119.41;5227913;28;20455;-57
2022/03/23 01:58:22;;;;;;;86.13;55.92;;;;;;;9.79;55.77;103121.38;5227504;28;20545;-57
2022/03/23 02:00:55;;;;;;;83.05;54.58;;;;;;;9.74;55.87;103114.66;5227349;28;20494;-52
2022/03/23 02:03:27;;;;;;;81.60;54.25;;;;;;;9.31;55.84;103049.38;5226770;28;20404;-56
2022/03/23 02:06:01;;;;;;;84.30;56.22;;;;;;;9.68;55.88;103116.69;5227936;28;20451;-56
2022/03/23 02:08:34;;;;;;;83.30;55.60;;;;;;;9.65;55.83;103116.88;5216734;28;20496;-55
2022/03/23 02:11:09;;;;;;;78.88;52.65;;;;;;;9.64;55.89;103115.19;5203220;28;20514;-56
2022/03/23 02:13:41;;;;;;;88.78;56.97;;;;;;;9.55;56.13;103099.88;5206174;28;20853;-53
2022/03/23 02:16:16;;;;;;;83.18;54.28;;;;;;;9.55;56.05;103115.69;5209963;28;20418;-56
2022/03/23 02:18:48;;;;;;;74.73;52.13;;;;;;;9.52;56.22;103092.13;5207706;28;20943;-57
2022/03/23 02:21:22;;;;;;;81.05;54.13;;;;;;;9.54;56.27;103105.22;5208140;28;20524;-56
2022/03/23 02:23:57;;;;;;;88.68;55.85;;;;;;;9.48;56.34;103106.44;5206690;28;20492;-56
2022/03/23 02:26:29;;;;;;;88.43;55.97;;;;;;;9.48;56.46;103103.81;5202795;28;20507;-54
2022/03/23 02:29:02;;;;;;;94.20;58.40;;;;;;;9.48;56.31;103103.81;5206548;28;20898;-57
2022/03/23 02:31:35;;;;;;;86.45;55.95;;;;;;;9.47;56.48;103102.94;5207775;28;20781;-56
2022/03/23 02:34:07;;;;;;;79.35;53.08;;;;;;;9.39;56.45;103094.63;5205931;28;20501;-59
2022/03/23 02:36:40;;;;;;;79.22;53.63;;;;;;;9.42;56.39;103105.00;5208015;28;20421;-57
2022/03/23 02:39:14;;;;;;;86.00;54.88;;;;;;;9.43;56.37;103100.56;5205106;28;20504;-55
2022/03/23 02:41:47;;;;;;;86.05;57.58;;;;;;;9.44;56.67;103107.53;5206874;28;21447;-56
2022/03/23 02:44:22;;;;;;;92.25;58.45;;;;;;;9.41;56.70;103097.16;5207482;28;20505;-56
2022/03/23 02:46:54;;;;;;;85.95;56.90;;;;;;;9.43;56.67;103105.84;5208379;28;20459;-57
2022/03/23 02:49:27;;;;;;;82.05;54.90;;;;;;;9.42;56.72;103099.72;5204736;28;20413;-51
2022/03/23 02:51:59;;;;;;;83.28;54.53;;;;;;;9.36;56.78;103100.06;5207873;28;20494;-57
2022/03/23 03:03:59;;;;;;;88.00;56.08;;;;;;;9.25;57.25;103105.09;5202170;28;20703;-56
2022/03/23 03:06:31;;;;;;;87.80;56.17;;;;;;;9.18;57.30;103101.94;5203917;28;20814;-58
2022/03/23 03:09:05;;;;;;;83.10;53.22;;;;;;;9.20;57.19;103113.25;5221973;28;20458;-56
2022/03/23 03:11:39;;;;;;;82.10;55.78;;;;;;;9.19;57.32;103102.78;5226591;28;20439;-57
2022/03/23 03:14:13;;;;;;;83.60;56.28;;;;;;;9.11;57.30;103105.03;5229575;28;20482;-56
2022/03/23 03:16:47;;;;;;;87.28;57.25;;;;;;;9.13;57.37;103119.78;5227132;28;20435;-54
2022/03/23 03:19:19;;;;;;;83.18;56.88;;;;;;;9.10;57.36;103114.69;5228965;28;20886;-56
2022/03/23 03:21:52;;;;;;;89.38;56.40;;;;;;;8.78;57.60;103066.38;5226006;28;20427;-55
2022/03/23 03:24:24;;;;;;;90.47;57.67;;;;;;;9.02;57.61;103109.00;5227959;28;20519;-56
2022/03/23 03:26:58;;;;;;;86.30;56.70;;;;;;;8.94;57.77;103108.56;5224853;28;20779;-48
2022/03/23 03:29:31;;;;;;;85.07;55.22;;;;;;;8.97;57.61;103108.41;5226573;28;20441;-55
2022/03/23 03:32:04;;;;;;;83.53;54.47;;;;;;;8.85;57.43;103098.53;5225612;28;20958;-56
2022/03/23 03:34:36;;;;;;;88.60;56.78;;;;;;;8.70;57.63;103087.00;5226668;28;20499;-57
2022/03/23 03:37:09;;;;;;;86.17;56.50;;;;;;;8.89;57.66;103123.78;5245548;28;20484;-56
2022/03/23 03:39:41;;;;;;;88.93;56.25;;;;;;;8.80;57.75;103108.47;5230685;28;20526;-56
2022/03/23 03:42:15;;;;;;;86.93;56.20;;;;;;;8.83;57.75;103116.22;5236219;28;20424;-56
2022/03/23 03:44:50;;;;;;;80.68;53.58;;;;;;;8.80;57.92;103121.66;5234451;28;20416;-53
2022/03/23 03:47:23;;;;;;;97.30;58.17;;;;;;;8.77;57.89;103120.88;5226759;28;20403;-55
2022/03/23 03:49:55;;;;;;;102.85;61.20;;;;;;;8.70;57.75;103111.59;5229381;28;20495;-57
2022/03/23 03:52:28;;;;;;;89.70;58.87;;;;;;;8.73;57.82;103121.09;5229067;28;20549;-56
2022/03/23 03:55:00;;;;;;;91.40;59.00;;;;;;;8.70;57.86;103121.25;5227342;28;21000;-54
2022/03/23 03:57:34;;;;;;;91.75;57.55;;;;;;;8.68;57.88;103124.00;5234162;28;20427;-57
2022/03/23 04:00:08;;;;;;;87.88;56.75;;;;;;;8.66;57.98;103125.00;5230307;28;20508;-57
2022/03/23 04:02:41;;;;;;;85.15;57.03;;;;;;;8.36;57.94;103085.28;5239354;28;20410;-57
2022/03/23 04:05:13;;;;;;;88.18;57.20;;;;;;;8.49;57.85;103112.72;5234648;28;20414;-54
2022/03/23 04:07:47;;;;;;;90.15;55.28;;;;;;;8.55;58.16;103122.94;5228398;28;20415;-52
2022/03/23 04:10:20;;;;;;;94.53;57.33;;;;;;;8.52;58.17;103123.09;5218892;28;20395;-56
2022/03/23 04:12:54;;;;;;;86.80;57.13;;;;;;;8.47;58.21;103114.59;5226164;28;20426;-55
2022/03/23 04:15:27;;;;;;;93.63;58.65;;;;;;;8.44;58.13;103130.53;5224277;28;20472;-55
2022/03/23 04:18:00;;;;;;;93.87;59.50;;;;;;;8.38;58.37;103125.56;5222801;28;20419;-56
2022/03/23 04:20:32;;;;;;;98.00;61.13;;;;;;;8.30;58.17;103123.34;5227508;28;20420;-57
2022/03/23 04:23:05;;;;;;;91.72;60.15;;;;;;;8.31;58.27;103123.25;5221411;28;20830;-54
2022/03/23 04:25:37;;;;;;;89.82;58.08;;;;;;;8.34;58.10;103139.81;5224759;28;20411;-57
2022/03/23 04:28:11;;;;;;;89.13;57.97;;;;;;;8.36;58.43;103132.69;5227845;28;20782;-57
2022/03/23 04:30:44;;;;;;;98.85;58.00;;;;;;;8.29;58.37;103132.16;5225804;28;20811;-57
2022/03/23 04:33:16;;;;;;;86.35;57.88;;;;;;;8.30;58.50;103139.97;5223708;28;20450;-57
2022/03/23 04:35:49;;;;;;;87.22;58.15;;;;;;;8.15;58.47;103122.34;5223346;28;20410;-56
2022/03/23 04:38:21;;;;;;;88.93;57.35;;;;;;;8.24;58.54;103148.19;5225138;28;20527;-57
2022/03/23 04:40:54;;;;;;;92.60;58.95;;;;;;;8.15;58.64;103132.03;5223037;28;20551;-55
2022/03/23 04:43:28;;;;;;;86.13;57.85;;;;;;;8.13;58.61;103137.34;5216119;28;20809;-55
2022/03/23 04:46:00;;;;;;;94.45;61.22;;;;;;;8.15;58.52;103146.03;5213703;28;20471;-57
2022/03/23 04:48:33;;;;;;;94.72;61.30;;;;;;;8.14;58.70;103144.31;5207126;28;20875;-57
2022/03/23 04:51:05;;;;;;;95.78;60.85;;;;;;;8.12;58.42;103143.53;5212302;28;20413;-57
2022/03/23 04:53:37;;;;;;;104.07;61.85;;;;;;;8.12;58.78;103145.34;5216184;28;20496;-57
2022/03/23 04:56:11;;;;;;;87.38;58.65;;;;;;;8.10;58.68;103142.75;5226219;28;20461;-56
2022/03/23 04:58:44;;;;;;;101.78;66.32;;;;;;;8.01;58.58;103136.19;5227756;28;20420;-55
2022/03/23 05:01:17;;;;;;;100.50;62.72;;;;;;;8.07;58.55;103143.75;5216488;28;29030;-56
2022/03/23 05:03:50;;;;;;;98.05;62.53;;;;;;;8.10;58.69;103153.28;5216678;28;20443;-57
2022/03/23 05:06:22;;;;;;;97.07;61.13;;;;;;;8.10;58.71;103148.03;5224946;28;20415;-57
2022/03/23 05:08:55;;;;;;;95.97;59.78;;;;;;;8.08;58.72;103157.78;5219507;28;20801;-58
2022/03/23 05:11:27;;;;;;;94.82;59.35;;;;;;;7.95;58.81;103127.75;5223080;28;20554;-52
2022/03/23 05:14:01;;;;;;;90.47;57.73;;;;;;;8.03;58.62;103146.63;5225982;28;20740;-58
2022/03/23 05:16:34;;;;;;;103.47;64.18;;;;;;;8.03;58.90;103146.63;5225678;28;20415;-58
2022/03/23 05:19:06;;;;;;;97.15;59.80;;;;;;;8.03;58.90;103151.91;5222674;28;20428;-57
2022/03/23 05:21:39;;;;;;;95.40;60.20;;;;;;;8.02;58.87;103152.81;5224710;28;20451;-56
2022/03/23 05:24:11;;;;;;;97.47;58.75;;;;;;;8.00;58.86;103152.06;5226929;28;20909;-58
2022/03/23 05:26:44;;;;;;;95.65;58.55;;;;;;;7.98;58.87;103151.28;5223873;28;20974;-56
2022/03/23 05:29:18;;;;;;;91.13;61.23;;;;;;;7.94;58.95;103147.09;5224907;28;20407;-57
2022/03/23 05:31:51;;;;;;;91.53;59.77;;;;;;;7.84;59.05;103147.56;5226260;28;20490;-57
2022/03/23 05:34:24;;;;;;;100.63;61.70;;;;;;;7.90;59.21;103161.31;5227560;28;20410;-56
2022/03/23 05:36:56;;;;;;;100.85;62.10;;;;;;;7.82;58.99;103148.53;5227863;28;20395;-59
2022/03/23 05:39:29;;;;;;;98.15;59.85;;;;;;;7.86;59.43;103156.19;5226136;28;20571;-57
2022/03/23 05:42:01;;;;;;;90.25;56.30;;;;;;;7.85;59.24;103159.75;5227024;28;21431;-56
2022/03/23 05:44:35;;;;;;;90.07;58.05;;;;;;;7.82;59.28;103157.28;5227907;28;20498;-56
2022/03/23 05:47:08;;;;;;;92.53;57.03;;;;;;;7.82;59.17;103161.69;5228800;28;20433;-57
2022/03/23 05:49:41;;;;;;;98.67;60.77;;;;;;;7.80;59.29;103156.53;5233034;28;20974;-57
2022/03/23 05:52:14;;;;;;;99.95;59.75;;;;;;;7.84;59.51;103163.34;5231470;28;20771;-52
2022/03/23 05:54:49;;;;;;;90.78;59.63;;;;;;;7.82;59.22;103165.19;5232317;28;20803;-57
2022/03/23 05:57:22;;;;;;;100.22;60.47;;;;;;;7.88;59.54;103168.44;5231663;28;20946;-58
2022/03/23 05:59:55;;;;;;;93.78;60.05;;;;;;;7.82;59.39;103170.44;5223208;28;20974;-56
2022/03/23 06:02:28;;;;;;;81.35;54.88;;;;;;;7.92;59.30;103170.84;5219700;28;20798;-56
2022/03/23 06:05:00;;;;;;;88.32;55.42;;;;;;;7.94;59.38;103173.41;5230679;28;20496;-57
2022/03/23 06:07:34;;;;;;;100.22;61.47;;;;;;;7.93;59.35;103166.41;5243841;28;20465;-57
2022/03/23 06:10:08;;;;;;;97.10;61.27;;;;;;;7.98;59.51;103164.44;5232236;28;20891;-58
2022/03/23 06:12:40;;;;;;;102.57;63.67;;;;;;;8.12;59.50;103175.13;5231385;28;20755;-57
2022/03/23 06:15:14;;;;;;;104.35;61.13;;;;;;;8.24;59.35;103171.88;5231104;28;20892;-58
2022/03/23 06:17:47;;;;;;;96.72;58.83;;;;;;;8.34;59.52;103174.06;5232246;28;20411;-56
2022/03/23 06:20:19;;;;;;;93.95;57.65;;;;;;;8.43;59.47;103181.53;5230669;28;20495;-54
2022/03/23 06:22:52;;;;;;;85.45;56.88;;;;;;;8.51;59.30;103184.59;5227689;28;20491;-57
2022/03/23 06:25:26;;;;;;;87.57;54.38;;;;;;;8.56;59.49;103173.84;5229793;28;20502;-56
2022/03/23 06:27:58;;;;;;;85.50;53.30;;;;;;;8.67;59.50;103185.53;5225832;28;20419;-57
2022/03/23 06:30:34;;;;;;;79.88;52.22;;;;;;;8.70;59.46;103169.56;5229289;28;20503;-55
2022/03/23 06:33:06;;;;;;;76.32;51.47;;;;;;;8.84;59.34;103173.25;5228275;28;20433;-55
2022/03/23 06:35:39;;;;;;;77.35;51.00;;;;;;;8.99;59.35;103177.69;5231846;28;20423;-56
2022/03/23 06:38:11;;;;;;;83.85;51.65;;;;;;;9.11;59.35;103186.75;5228224;28;20494;-59
2022/03/23 06:40:44;;;;;;;75.20;51.60;;;;;;;9.22;59.27;103193.09;5227897;28;20447;-55
2022/03/23 06:43:16;;;;;;;69.72;47.70;;;;;;;9.36;59.38;103197.66;5228614;28;20966;-57
2022/03/23 06:45:50;;;;;;;85.63;48.70;;;;;;;9.49;59.46;103192.53;5228471;28;20407;-57
2022/03/23 06:48:23;;;;;;;75.18;46.58;;;;;;;9.58;59.32;103186.75;5225929;28;20434;-56
2022/03/23 06:50:55;;;;;;;77.40;47.23;;;;;;;9.72;59.29;103190.41;5228215;28;20519;-55
2022/03/23 06:53:28;;;;;;;73.50;45.15;;;;;;;10.10;58.96;103189.06;5224733;28;20463;-54
2022/03/23 06:56:00;;;;;;;82.45;45.40;;;;;;;11.18;58.12;103201.13;5226259;28;20427;-56
2022/03/23 06:58:33;;;;;;;59.33;39.78;;;;;;;12.54;56.74;103189.59;5225942;28;20714;-52
2022/03/23 07:01:07;;;;;;;60.40;38.40;;;;;;;13.77;55.82;103199.47;5226397;28;20443;-54
2022/03/23 07:03:39;;;;;;;67.05;39.40;;;;;;;14.81;54.94;103201.38;5218927;28;20419;-55
2022/03/23 07:06:12;;;;;;;55.33;36.78;;;;;;;15.81;53.69;103191.59;5221205;28;20513;-54
2022/03/23 07:11:39;;;;;;;53.42;32.83;;;;;;;17.81;51.49;103205.38;5206380;28;20910;-49
2022/03/23 07:14:12;;;;;;;53.35;33.97;;;;;;;18.44;50.51;103205.75;5231116;28;20885;-52
2022/03/23 07:16:45;;;;;;;56.88;33.25;;;;;;;18.73;49.45;103131.72;5225948;28;20419;-50
2022/03/23 07:19:18;;;;;;;48.53;31.23;;;;;;;19.94;48.14;103203.75;5227700;28;20435;-49
2022/03/23 07:21:51;;;;;;;53.83;30.60;;;;;;;20.72;47.13;103209.22;5209408;28;20537;-53
2022/03/23 07:24:24;;;;;;;59.25;33.67;;;;;;;21.55;45.82;103211.22;5225532;28;20415;-51
2022/03/23 07:26:57;;;;;;;50.50;31.00;;;;;;;22.30;44.48;103204.94;5222008;28;20442;-51
2022/03/23 07:29:30;;;;;;;53.75;31.30;;;;;;;23.00;43.62;103207.78;5211607;28;20531;-54
2022/03/23 07:32:04;;;;;;;49.40;29.95;;;;;;;23.65;42.57;103208.44;5222168;28;20535;-52
2022/03/23 07:34:38;;;;;;;48.75;30.30;;;;;;;24.11;41.24;103203.03;5222514;28;20455;-54
2022/03/23 07:37:10;;;;;;;44.70;27.58;;;;;;;24.46;40.63;103206.09;5223246;28;20541;-51
2022/03/23 07:39:43;;;;;;;46.50;30.15;;;;;;;24.61;39.93;103204.25;5225183;28;21001;-55
2022/03/23 07:42:15;;;;;;;44.88;27.58;;;;;;;24.66;39.32;103177.53;5226564;28;20416;-50
2022/03/23 07:44:48;;;;;;;44.83;28.33;;;;;;;24.86;38.73;103199.41;5226026;28;20437;-50
2022/03/23 07:47:22;;;;;;;44.22;28.30;;;;;;;24.84;38.43;103210.41;5222488;28;20424;-49
2022/03/23 07:49:54;;;;;;;42.60;28.55;;;;;;;24.67;38.23;103198.09;5223992;28;20783;-47
2022/03/23 07:52:27;;;;;;;40.15;28.35;;;;;;;24.96;37.49;103207.22;5226174;28;20969;-52
2022/03/23 07:55:00;;;;;;;44.15;28.17;;;;;;;25.33;37.08;103210.81;5219793;28;20950;-51
2022/03/23 07:57:32;;;;;;;39.72;26.90;;;;;;;25.72;36.16;103211.25;5206376;28;20443;-52
2022/03/23 08:00:06;;;;;;;49.10;28.42;;;;;;;25.85;35.84;103215.13;5216991;28;20523;-52
2022/03/23 08:02:40;;;;;;;38.95;26.30;;;;;;;26.14;35.41;103206.88;5213183;28;20415;-52
2022/03/23 08:05:12;;;;;;;43.22;27.73;;;;;;;26.35;34.56;103183.44;5219937;28;20989;-50
2022/03/23 08:07:45;;;;;;;41.63;26.13;;;;;;;26.96;33.91;103213.44;5215491;28;20463;-51
2022/03/23 08:10:18;;;;;;;46.88;27.65;;;;;;;27.37;33.26;103215.25;5217512;28;20427;-56
2022/03/23 08:12:51;;;;;;;42.92;26.02;;;;;;;27.63;32.80;103219.94;5195374;28;20433;-49
2022/03/23 08:15:24;;;;;;;42.05;26.40;;;;;;;27.56;32.41;103187.34;5232086;28;20411;-49
2022/03/23 08:17:58;;;;;;;38.92;26.50;;;;;;;27.54;32.32;103227.44;5220719;28;20416;-56
2022/03/23 08:20:35;;;;;;;43.65;26.00;;;;;;;27.15;32.17;103190.16;5215436;28;20903;-52
2022/03/23 08:23:10;;;;;;;42.95;27.00;;;;;;;27.05;32.42;103223.06;5214816;28;20829;-52
2022/03/23 08:25:44;;;;;;;35.17;25.45;;;;;;;27.01;32.05;103223.69;5215853;28;20423;-50
2022/03/23 08:28:17;;;;;;;40.85;25.27;;;;;;;27.03;31.71;103208.84;5221577;28;20455;-55
2022/03/23 08:30:50;;;;;;;36.03;24.35;;;;;;;26.98;31.48;103194.25;5224886;28;20412;-51
2022/03/23 08:33:25;;;;;;;36.08;24.25;;;;;;;26.28;31.70;103129.22;5225056;28;20433;-52
2022/03/23 08:35:57;;;;;;;37.57;23.40;;;;;;;26.57;31.69;103220.31;5223897;28;20428;-52
2022/03/23 08:38:30;;;;;;;40.70;23.95;;;;;;;26.39;31.44;103174.72;5224631;28;20406;-53
2022/03/23 08:41:03;;;;;;;39.03;22.90;;;;;;;26.26;31.64;103217.13;5212332;28;20984;-54
2022/03/23 08:43:35;;;;;;;35.33;24.83;;;;;;;25.74;31.90;103189.41;5220335;28;20511;-51
2022/03/23 08:46:08;;;;;;;37.95;24.17;;;;;;;25.77;31.84;103208.81;5223613;28;20416;-53
2022/03/23 08:48:42;;;;;;;41.58;22.63;;;;;;;25.54;31.96;103213.56;5221620;28;20917;-52
2022/03/23 08:51:15;;;;;;;34.20;22.73;;;;;;;25.21;32.22;103208.63;5221382;28;20455;-52
2022/03/23 08:53:51;;;;;;;33.22;22.55;;;;;;;24.72;32.16;103217.31;5222407;28;20534;-48
2022/03/23 08:56:23;;;;;;;39.13;22.65;;;;;;;24.55;32.66;103213.09;5221890;28;20419;-50
2022/03/23 08:58:56;;;;;;;34.70;21.35;;;;;;;24.35;32.61;103221.72;5218714;28;20908;-50
2022/03/23 09:01:30;;;;;;;34.88;21.75;;;;;;;24.35;32.43;103221.72;5224344;28;20579;-47
2022/03/23 09:04:07;;;;;;;36.78;21.42;;;;;;;24.33;32.68;103210.25;5212016;28;20511;-52
2022/03/23 09:06:40;;;;;;;39.45;20.23;;;;;;;24.09;32.98;103194.28;5233212;28;20794;-52
2022/03/23 09:09:12;;;;;;;28.97;19.50;;;;;;;24.25;32.93;103207.66;5220999;28;20420;-52
2022/03/23 09:11:45;;;;;;;30.25;19.55;;;;;;;23.79;32.96;103131.31;5216611;28;21145;-54
2022/03/23 09:14:17;;;;;;;31.45;19.48;;;;;;;24.39;32.79;103209.50;5220005;28;22021;-52
2022/03/23 09:16:50;;;;;;;32.63;20.38;;;;;;;24.46;33.05;103225.00;5216421;28;20786;-51
2022/03/23 09:19:23;;;;;;;33.35;19.65;;;;;;;24.16;33.08;103220.38;5221318;28;20903;-52
2022/03/23 09:21:56;;;;;;;28.17;19.33;;;;;;;23.68;33.49;103229.66;5218590;28;20760;-53
2022/03/23 09:24:29;;;;;;;30.17;20.23;;;;;;;23.19;33.82;103233.47;5220018;28;20425;-49
2022/03/23 09:27:02;;;;;;;31.30;20.40;;;;;;;22.72;34.23;103222.66;5224858;28;20412;-50
2022/03/23 09:29:34;;;;;;;30.20;20.17;;;;;;;22.32;34.46;103219.88;5223772;28;20431;-52
2022/03/23 09:32:10;;;;;;;31.27;19.02;;;;;;;22.17;34.42;103226.13;5221757;28;20419;-50
2022/03/23 09:34:43;;;;;;;25.58;16.58;;;;;;;21.86;34.48;103232.13;5226496;28;20423;-51
2022/03/23 09:40:08;;;;;;;31.85;17.55;;;;;;;21.16;34.56;103237.81;5218209;28;20947;-52
2022/03/23 09:42:41;;;;;;;30.85;18.10;;;;;;;20.81;34.73;103222.66;5223409;28;20435;-52
2022/03/23 09:45:21;;;;;;;30.80;18.30;;;;;;;20.64;34.50;103221.75;5220652;28;20504;-48
2022/03/23 09:47:54;;;;;;;34.17;18.10;;;;;;;20.56;34.48;103230.56;5227284;28;20407;-53
2022/03/23 09:50:30;;;;;;;31.55;18.08;;;;;;;20.38;34.23;103221.72;5226354;28;20909;-55
2022/03/23 09:53:03;;;;;;;30.70;18.92;;;;;;;20.26;34.24;103219.28;5221511;28;20429;-53
2022/03/23 09:55:37;;;;;;;29.20;18.70;;;;;;;20.26;33.77;103213.06;5224343;28;20407;-51
2022/03/23 09:58:09;;;;;;;31.42;19.35;;;;;;;19.91;33.65;103185.28;5223033;28;20928;-54
2022/03/23 10:00:45;;;;;;;31.90;19.30;;;;;;;20.21;33.35;103221.59;5227141;28;20424;-50
2022/03/23 10:04:06;;;;;;;28.63;18.33;;;;;;;20.16;32.99;103229.28;5222856;28;20423;-52
2022/03/23 10:07:07;;;;;;;31.25;18.67;;;;;;;20.09;32.70;103228.19;5222485;28;20825;-51
2022/03/23 10:10:45;;;;;;;29.83;17.90;;;;;;;20.12;32.38;103211.78;5225269;28;20538;-54
2022/03/23 10:14:21;;;;;;;29.23;19.45;;;;;;;20.16;32.11;103218.53;5225073;28;20470;-52
2022/03/23 10:17:48;;;;;;;30.00;19.15;;;;;;;20.03;31.83;103228.81;5204531;28;20431;-52
2022/03/23 10:20:21;;;;;;;32.07;20.13;;;;;;;19.87;31.70;103223.28;5209531;28;20421;-55
2022/03/23 10:22:56;;;;;;;31.55;19.30;;;;;;;19.78;31.64;103215.16;5219215;28;20412;-53
2022/03/23 10:25:29;;;;;;;37.27;19.87;;;;;;;19.81;31.67;103225.59;5236146;28;20832;-49
2022/03/23 10:28:01;;;;;;;40.97;20.40;;;;;;;19.81;31.43;103222.06;5223547;28;20507;-54
2022/03/23 10:30:35;;;;;;;29.40;19.83;;;;;;;19.79;31.09;103206.16;5224978;28;20927;-54
2022/03/23 10:33:22;;;;;;;32.45;19.55;;;;;;;19.81;31.01;103217.53;5222607;28;20948;-52
2022/03/23 10:36:00;;;;;;;35.28;20.08;;;;;;;19.77;30.97;103218.84;5225907;28;20412;-53
2022/03/23 10:38:41;;;;;;;29.38;19.80;;;;;;;19.78;30.94;103208.97;5215393;28;20421;-54
2022/03/23 10:41:13;;;;;;;30.65;19.77;;;;;;;19.84;30.62;103212.88;5222017;28;20894;-50
2022/03/23 10:43:46;;;;;;;29.48;17.92;;;;;;;19.88;30.88;103209.75;5219146;28;20954;-52
2022/03/23 10:46:18;;;;;;;31.65;19.02;;;;;;;19.91;30.77;103211.25;5218766;28;20783;-52
2022/03/23 10:48:54;;;;;;;33.72;20.25;;;;;;;19.95;30.67;103216.19;5221055;28;20935;-52
2022/03/23 10:51:28;;;;;;;35.08;21.45;;;;;;;19.97;30.50;103213.31;5222839;28;20506;-55
2022/03/23 10:54:17;;;;;;;31.77;20.02;;;;;;;20.02;30.41;103211.03;5221313;28;20430;-50
2022/03/23 10:56:50;;;;;;;32.63;21.00;;;;;;;20.06;30.23;103207.03;5224481;28;20458;-54
2022/03/23 10:59:26;;;;;;;30.13;19.20;;;;;;;20.06;30.20;103211.56;5224051;28;20434;-53
2022/03/23 11:02:04;;;;;;;37.25;19.25;;;;;;;20.07;30.30;103208.75;5221268;28;20666;-52
2022/03/23 11:04:49;;;;;;;34.15;18.60;;;;;;;20.10;30.17;103194.16;5220893;28;20463;-55
2022/03/23 11:07:27;;;;;;;34.75;18.95;;;;;;;20.27;29.98;103204.84;5220990;28;20451;-54
2022/03/23 11:15:51;;;;;;;36.47;20.07;;;;;;;20.49;29.64;103191.91;5218569;28;20473;-53
2022/03/23 11:18:25;;;;;;;39.95;20.00;;;;;;;20.57;29.81;103200.06;5220323;28;20734;-52
2022/03/23 11:20:59;;;;;;;36.90;18.70;;;;;;;20.54;29.81;103210.28;5217235;28;20641;-50
2022/03/23 11:23:36;;;;;;;33.97;18.45;;;;;;;20.66;29.58;103204.50;5215235;28;20448;-55
2022/03/23 11:26:11;;;;;;;37.47;16.25;;;;;;;20.35;29.71;103153.09;5220493;28;20694;-54
2022/03/23 11:28:46;;;;;;;37.80;17.45;;;;;;;20.72;29.48;103209.22;5224084;28;20543;-54
2022/03/23 11:31:19;;;;;;;33.22;17.98;;;;;;;20.71;29.36;103202.16;5213185;28;21874;-54
2022/03/23 11:33:53;;;;;;;41.20;18.60;;;;;;;20.66;29.41;103199.13;5222923;28;20443;-52
2022/03/23 11:36:29;;;;;;;34.33;16.35;;;;;;;20.61;29.57;103190.69;5221287;28;20451;-57
2022/03/23 11:39:04;;;;;;;29.73;14.05;;;;;;;20.63;29.24;103193.22;5219617;28;21138;-53
2022/03/23 11:41:41;;;;;;;39.25;15.40;;;;;;;20.69;29.25;103193.44;5219857;28;20861;-50
2022/03/23 11:44:16;;;;;;;36.42;17.10;;;;;;;20.64;28.92;103185.00;5222127;28;20489;-52
2022/03/23 11:46:50;;;;;;;32.58;13.98;;;;;;;20.04;29.04;103097.22;5222623;28;20414;-52
2022/03/23 11:49:29;;;;;;;26.83;13.45;;;;;;;20.60;29.02;103180.13;5220020;28;20526;-53
2022/03/23 11:52:21;;;;;;;34.08;14.20;;;;;;;20.69;28.82;103181.84;5220270;28;20957;-59
2022/03/23 11:58:10;;;;;;;32.58;15.48;;;;;;;20.70;28.82;103195.09;5219729;28;26583;-53
2022/03/23 12:00:45;;;;;;;29.77;14.43;;;;;;;20.72;28.77;103173.47;5214284;28;20527;-54
2022/03/23 12:03:56;;;;;;;34.38;12.93;;;;;;;20.80;28.87;103176.19;5223732;28;20450;-54
2022/03/23 12:06:40;;;;;;;36.75;14.95;;;;;;;20.85;28.80;103171.19;5221132;28;20478;-54
2022/03/23 12:09:32;;;;;;;29.75;13.80;;;;;;;20.94;28.60;103170.22;5219634;28;20431;-52